createdAt,value
2019-03-20T00:01:23.569Z,57.90
2019-03-20T00:03:53.946Z,58.60
2019-03-20T00:06:23.533Z,58.20
2019-03-20T00:08:53.829Z,58.20
2019-03-20T00:11:24.146Z,58.20
2019-03-20T00:14:05.338Z,58.30
2019-03-20T00:16:37.836Z,58.30
2019-03-20T00:19:11.979Z,58.20
2019-03-20T00:21:42.480Z,58.30
2019-03-20T00:24:14.801Z,58.10
2019-03-20T00:26:48.112Z,58.30
2019-03-20T00:29:17.849Z,58.40
2019-03-20T00:31:47.141Z,58.40
2019-03-20T00:37:50.497Z,58.60
2019-03-20T00:40:19.993Z,58.50
2019-03-20T00:42:50.005Z,58.40
2019-03-20T00:45:50.023Z,58.30
2019-03-20T00:48:19.405Z,58.30
2019-03-20T00:50:48.818Z,58.10
2019-03-20T00:53:20.530Z,58.20
2019-03-20T00:55:53.913Z,58.40
2019-03-20T00:58:23.792Z,58.60
2019-03-20T01:00:55.643Z,58.80
2019-03-20T01:03:56.274Z,59.10
2019-03-20T01:06:26.989Z,59.40
2019-03-20T01:09:01.121Z,59.60
2019-03-20T01:11:31.596Z,59.80
2019-03-20T01:17:44.866Z,60.20
2019-03-20T01:20:15.725Z,60.30
2019-03-20T01:22:45.352Z,60.50
2019-03-20T01:25:15.562Z,60.80
2019-03-20T01:27:44.769Z,60.80
2019-03-20T01:30:33.829Z,61.10
2019-03-20T01:33:05.916Z,61.20
2019-03-20T01:35:37.813Z,61.40
2019-03-20T01:38:07.605Z,61.50
2019-03-20T01:40:36.891Z,61.60
2019-03-20T01:43:06.669Z,61.70
2019-03-20T01:45:52.269Z,61.70
2019-03-20T01:48:31.406Z,61.70
2019-03-20T01:51:20.855Z,61.50
2019-03-20T01:53:52.021Z,61.50
2019-03-20T01:56:21.955Z,61.40
2019-03-20T01:58:51.790Z,61.50
2019-03-20T02:01:20.713Z,61.50
2019-03-20T02:03:50.362Z,61.70
2019-03-20T02:06:21.085Z,61.70
2019-03-20T02:08:51.450Z,61.80
2019-03-20T02:11:21.571Z,61.80
2019-03-20T02:13:51.464Z,61.90
2019-03-20T02:16:20.803Z,61.80
2019-03-20T02:18:49.741Z,61.80
2019-03-20T02:21:18.688Z,62.10
2019-03-20T02:23:47.775Z,62.10
2019-03-20T02:26:19.717Z,62.20
2019-03-20T02:28:50.238Z,62.30
2019-03-20T02:31:19.146Z,62.30
2019-03-20T02:33:49.907Z,62.40
2019-03-20T02:36:21.809Z,62.40
2019-03-20T02:38:51.191Z,62.60
2019-03-20T02:41:30.843Z,62.70
2019-03-20T02:44:00.485Z,62.70
2019-03-20T02:46:30.393Z,62.70
2019-03-20T02:49:01.203Z,62.70
2019-03-20T02:51:30.169Z,62.60
2019-03-20T02:53:59.451Z,62.70
2019-03-20T02:56:28.457Z,62.60
2019-03-20T02:58:58.061Z,62.60
2019-03-20T03:01:28.566Z,62.40
2019-03-20T03:03:58.478Z,62.30
2019-03-20T03:06:29.718Z,62.30
2019-03-20T03:09:01.395Z,62.20
2019-03-20T03:11:31.126Z,62.10
2019-03-20T03:14:16.814Z,62.00
2019-03-20T03:16:46.570Z,62.00
2019-03-20T03:19:18.675Z,61.80
2019-03-20T03:21:56.146Z,61.60
2019-03-20T03:24:25.496Z,61.80
2019-03-20T03:26:55.761Z,61.70
2019-03-20T03:29:32.545Z,61.60
2019-03-20T03:32:02.473Z,61.50
2019-03-20T03:34:32.832Z,61.40
2019-03-20T03:37:03.403Z,61.50
2019-03-20T03:39:32.460Z,61.60
2019-03-20T03:42:01.806Z,61.60
2019-03-20T03:44:32.014Z,61.50
2019-03-20T03:47:04.253Z,61.60
2019-03-20T03:49:36.269Z,61.50
2019-03-20T03:52:06.208Z,61.40
2019-03-20T03:54:35.234Z,61.50
2019-03-20T03:57:07.244Z,61.20
2019-03-20T03:59:37.256Z,61.10
2019-03-20T04:02:07.158Z,61.20
2019-03-20T04:04:36.726Z,61.30
2019-03-20T04:07:05.697Z,61.40
2019-03-20T04:09:35.559Z,61.40
2019-03-20T04:12:06.956Z,61.40
2019-03-20T04:14:42.287Z,61.60
2019-03-20T04:17:28.175Z,61.70
2019-03-20T04:19:58.213Z,61.80
2019-03-20T04:22:27.916Z,61.70
2019-03-20T04:24:57.143Z,61.80
2019-03-20T04:27:26.854Z,61.90
2019-03-20T04:29:56.981Z,61.80
2019-03-20T04:32:27.014Z,62.00
2019-03-20T04:34:59.370Z,62.00
2019-03-20T04:37:29.545Z,62.20
2019-03-20T04:40:04.743Z,62.30
2019-03-20T04:42:34.026Z,62.30
2019-03-20T04:45:06.733Z,62.20
2019-03-20T04:47:38.245Z,62.10
2019-03-20T04:50:12.875Z,62.10
2019-03-20T04:52:42.658Z,62.20
2019-03-20T04:55:42.350Z,62.10
2019-03-20T04:58:13.274Z,62.20
2019-03-20T05:00:42.698Z,62.20
2019-03-20T05:03:14.395Z,62.30
2019-03-20T05:05:44.352Z,62.30
2019-03-20T05:08:14.986Z,62.20
2019-03-20T05:10:45.195Z,62.10
2019-03-20T05:13:14.492Z,62.00
2019-03-20T05:15:44.045Z,62.00
2019-03-20T05:18:14.441Z,61.90
2019-03-20T05:20:47.499Z,62.00
2019-03-20T05:23:17.071Z,61.90
2019-03-20T05:25:47.904Z,61.90
2019-03-20T05:28:17.368Z,61.60
2019-03-20T05:30:48.376Z,61.80
2019-03-20T05:33:18.428Z,61.70
2019-03-20T05:35:47.882Z,61.50
2019-03-20T05:38:17.868Z,61.60
2019-03-20T05:40:49.554Z,61.60
2019-03-20T05:43:21.652Z,61.50
2019-03-20T05:45:53.740Z,61.40
2019-03-20T05:48:35.045Z,61.40
2019-03-20T05:51:31.276Z,61.60
2019-03-20T05:54:53.021Z,61.50
2019-03-20T05:57:25.087Z,61.40
2019-03-20T06:00:00.541Z,61.70
2019-03-20T06:02:31.607Z,61.10
2019-03-20T06:05:06.107Z,61.00
2019-03-20T06:07:43.997Z,61.00
2019-03-20T06:10:15.023Z,61.00
2019-03-20T06:12:45.977Z,60.90
2019-03-20T06:15:21.018Z,60.70
2019-03-20T06:17:54.715Z,60.60
2019-03-20T06:20:30.545Z,60.60
2019-03-20T06:23:04.776Z,60.20
2019-03-20T06:29:09.978Z,60.00
2019-03-20T06:31:52.297Z,59.90
2019-03-20T06:34:42.743Z,59.90
2019-03-20T06:37:15.893Z,59.90
2019-03-20T06:39:46.745Z,59.80
2019-03-20T06:42:19.152Z,59.80
2019-03-20T06:44:51.525Z,59.70
2019-03-20T06:47:29.214Z,59.80
2019-03-20T06:50:14.904Z,59.50
2019-03-20T06:53:18.351Z,59.50
2019-03-20T06:55:52.151Z,59.40
2019-03-20T06:58:32.605Z,59.30
2019-03-20T07:01:30.692Z,59.20
2019-03-20T07:04:41.498Z,59.10
2019-03-20T07:07:43.629Z,59.10
2019-03-20T07:10:43.465Z,59.10
2019-03-20T07:13:13.854Z,59.00
2019-03-20T07:19:13.064Z,58.90
2019-03-20T07:21:42.222Z,58.90
2019-03-20T07:24:26.864Z,58.70
2019-03-20T07:27:00.051Z,58.80
2019-03-20T07:29:29.158Z,58.70
2019-03-20T07:31:58.149Z,58.60
2019-03-20T07:34:40.107Z,58.60
2019-03-20T07:37:14.771Z,58.70
2019-03-20T07:39:47.664Z,58.70
2019-03-20T07:42:20.113Z,58.80
2019-03-20T07:44:55.009Z,58.70
2019-03-20T07:47:27.991Z,58.50
2019-03-20T07:49:58.269Z,59.00
2019-03-20T07:52:32.283Z,59.40
2019-03-20T07:55:07.861Z,59.70
2019-03-20T07:58:02.708Z,59.80
2019-03-20T08:00:33.842Z,60.00
2019-03-20T08:03:03.866Z,60.10
2019-03-20T08:05:35.446Z,60.30
2019-03-20T08:08:07.459Z,60.60
2019-03-20T08:10:38.520Z,60.70
2019-03-20T08:13:07.550Z,60.80
2019-03-20T08:16:06.379Z,60.80
2019-03-20T08:18:36.206Z,60.90
2019-03-20T08:21:07.597Z,60.80
2019-03-20T08:23:43.574Z,60.90
2019-03-20T08:26:53.111Z,60.80
2019-03-20T08:29:26.479Z,60.70
2019-03-20T08:32:00.570Z,60.60
2019-03-20T08:34:31.576Z,60.80
2019-03-20T08:37:03.983Z,60.90
2019-03-20T08:39:35.599Z,60.80
2019-03-20T08:42:10.389Z,60.80
2019-03-20T08:47:58.366Z,61.10
2019-03-20T08:50:46.227Z,61.20
2019-03-20T08:53:18.686Z,61.30
2019-03-20T08:55:50.522Z,61.40
2019-03-20T08:58:24.637Z,61.60
2019-03-20T09:00:54.983Z,61.60
2019-03-20T09:03:42.649Z,61.70
2019-03-20T09:06:21.543Z,62.00
2019-03-20T09:08:56.141Z,62.60
2019-03-20T09:11:28.183Z,62.20
2019-03-20T09:14:32.721Z,62.60
2019-03-20T09:17:02.965Z,62.80
2019-03-20T09:19:42.484Z,62.70
2019-03-20T09:22:30.624Z,62.60
2019-03-20T09:25:43.273Z,62.50
2019-03-20T09:28:13.930Z,62.40
2019-03-20T09:30:55.480Z,62.20
2019-03-20T09:33:26.506Z,62.30
2019-03-20T09:36:05.726Z,62.30
2019-03-20T09:38:44.779Z,62.20
2019-03-20T09:41:07.618Z,62.40
2019-03-20T09:43:44.219Z,62.30
2019-03-20T09:46:14.889Z,62.30
2019-03-20T09:48:45.354Z,62.20
2019-03-20T09:51:16.725Z,62.30
2019-03-20T09:53:46.566Z,62.50
2019-03-20T09:56:19.571Z,62.70
2019-03-20T09:59:10.340Z,62.70
2019-03-20T10:01:42.296Z,62.90
2019-03-20T10:04:12.744Z,62.90
2019-03-20T10:06:58.466Z,63.10
2019-03-20T10:09:43.674Z,63.00
2019-03-20T10:12:13.669Z,63.20
2019-03-20T10:14:43.464Z,63.40
2019-03-20T10:17:13.418Z,63.40
2019-03-20T10:19:45.133Z,63.40
2019-03-20T10:22:16.918Z,63.50
2019-03-20T10:25:03.941Z,63.60
2019-03-20T10:27:42.546Z,63.60
2019-03-20T10:30:15.897Z,63.50
2019-03-20T10:33:06.281Z,63.70
2019-03-20T10:35:50.475Z,63.60
2019-03-20T10:38:20.849Z,63.50
2019-03-20T10:40:51.771Z,63.40
2019-03-20T10:43:35.915Z,63.40
2019-03-20T10:46:21.897Z,63.30
2019-03-20T10:48:56.456Z,63.20
2019-03-20T10:51:44.889Z,63.30
2019-03-20T10:54:20.005Z,63.50
2019-03-20T10:57:10.640Z,63.60
2019-03-20T10:59:55.410Z,63.80
2019-03-20T11:02:30.892Z,64.00
2019-03-20T11:05:30.092Z,64.30
2019-03-20T11:08:02.247Z,64.40
2019-03-20T11:10:41.541Z,64.40
2019-03-20T11:16:44.307Z,64.60
2019-03-20T11:19:23.299Z,64.70
2019-03-20T11:22:19.056Z,64.50
2019-03-20T11:25:01.104Z,64.50
2019-03-20T11:40:53.234Z,64.50
2019-03-20T11:55:30.581Z,64.30
2019-03-20T11:59:03.846Z,64.00
2019-03-20T12:05:10.123Z,63.90
2019-03-20T12:07:51.411Z,63.70
2019-03-20T12:10:26.158Z,63.50
2019-03-20T12:13:23.269Z,63.60
2019-03-20T13:37:46.031Z,65.60
2019-03-20T13:45:25.432Z,65.30
2019-03-20T13:50:52.694Z,65.10
2019-03-20T13:53:57.991Z,64.90
2019-03-20T13:56:57.555Z,64.90
2019-03-20T14:06:46.206Z,65.10
2019-03-20T14:24:08.901Z,65.50
2019-03-20T14:27:12.129Z,65.80
2019-03-20T14:41:29.206Z,67.10
2019-03-20T14:48:08.803Z,67.70
2019-03-20T14:51:08.195Z,67.90
2019-03-20T15:01:13.086Z,67.80
2019-03-20T15:04:04.487Z,68.00
2019-03-20T15:06:36.362Z,68.00
2019-03-20T15:09:49.309Z,68.10
2019-03-20T15:12:47.790Z,68.70
2019-03-20T15:15:44.853Z,68.10
2019-03-20T15:18:43.104Z,68.00
2019-03-20T15:21:28.450Z,68.00
2019-03-20T15:24:44.196Z,68.00
2019-03-20T15:28:12.420Z,68.10
2019-03-20T15:31:39.949Z,68.00
2019-03-20T15:38:00.277Z,68.10
2019-03-20T15:47:12.630Z,68.00
2019-03-20T15:50:09.301Z,67.70
2019-03-20T15:53:17.442Z,67.70
2019-03-20T15:55:56.659Z,67.30
2019-03-20T15:59:23.993Z,67.10
2019-03-20T16:05:59.748Z,67.10
2019-03-20T16:08:46.259Z,66.80
2019-03-20T16:11:39.435Z,66.90
2019-03-20T16:14:35.291Z,66.70
2019-03-20T16:17:14.287Z,66.50
2019-03-20T16:19:47.774Z,66.30
2019-03-20T16:22:38.819Z,66.40
2019-03-20T16:25:21.282Z,66.60
2019-03-20T16:28:02.849Z,66.80
2019-03-20T16:30:36.082Z,66.90
2019-03-20T16:33:07.754Z,67.10
2019-03-20T16:35:48.456Z,67.20
2019-03-20T16:38:22.611Z,67.30
2019-03-20T16:40:53.725Z,67.40
2019-03-20T16:43:26.700Z,67.40
2019-03-20T16:46:12.002Z,67.60
2019-03-20T16:48:53.422Z,67.80
2019-03-20T16:51:26.986Z,67.80
2019-03-20T16:54:13.544Z,67.90
2019-03-20T16:56:44.384Z,68.10
2019-03-20T16:59:20.868Z,68.20
2019-03-20T17:01:50.461Z,68.30
2019-03-20T17:04:24.046Z,68.50
2019-03-20T17:06:58.105Z,68.60
2019-03-20T17:12:33.570Z,68.80
2019-03-20T17:15:33.898Z,69.00
2019-03-20T17:18:08.041Z,69.10
2019-03-20T17:20:51.458Z,69.10
2019-03-20T17:30:39.035Z,69.20
2019-03-20T17:33:42.799Z,69.10
2019-03-20T17:39:22.061Z,68.90
2019-03-20T17:41:55.600Z,68.90
2019-03-20T17:44:25.598Z,68.70
2019-03-20T17:46:57.828Z,68.80
2019-03-20T17:49:31.625Z,68.80
2019-03-20T17:52:02.521Z,68.70
2019-03-20T17:54:32.029Z,68.80
2019-03-20T17:57:01.098Z,68.80
2019-03-20T17:59:34.399Z,68.60
2019-03-20T18:02:05.705Z,68.50
2019-03-20T18:04:35.368Z,68.40
2019-03-20T18:07:05.859Z,68.20
2019-03-20T18:09:35.562Z,68.30
2019-03-20T18:12:24.498Z,68.10
2019-03-20T18:14:56.637Z,68.00
2019-03-20T18:17:27.714Z,68.10
2019-03-20T18:20:03.555Z,68.10
2019-03-20T18:22:32.791Z,68.20
2019-03-20T18:31:32.950Z,68.80
2019-03-20T18:34:11.185Z,68.10
2019-03-20T18:36:42.059Z,68.00
2019-03-20T18:39:14.509Z,67.90
2019-03-20T18:41:57.390Z,67.80
2019-03-20T18:44:20.034Z,67.80
2019-03-20T18:46:58.674Z,68.00
2019-03-20T18:49:29.109Z,68.20
2019-03-20T18:51:58.312Z,69.10
2019-03-20T18:54:31.023Z,68.80
2019-03-20T18:57:00.433Z,69.00
2019-03-20T18:59:30.779Z,69.30
2019-03-20T19:02:00.498Z,69.50
2019-03-20T19:04:30.621Z,69.60
2019-03-20T19:07:00.687Z,69.80
2019-03-20T19:09:30.127Z,70.00
2019-03-20T19:12:08.147Z,70.20
2019-03-20T19:14:32.269Z,70.10
2019-03-20T19:17:01.281Z,70.10
2019-03-20T19:19:30.360Z,70.30
2019-03-20T19:22:00.064Z,70.50
2019-03-20T19:24:39.238Z,70.70
2019-03-20T19:27:08.826Z,70.80
2019-03-20T19:29:38.518Z,70.80
2019-03-20T19:32:13.010Z,70.80
2019-03-20T19:34:50.691Z,70.80
2019-03-20T19:37:20.269Z,71.00
2019-03-20T19:39:52.472Z,71.10
2019-03-20T19:42:23.237Z,71.20
2019-03-20T19:44:55.939Z,71.40
2019-03-20T19:47:26.461Z,71.40
2019-03-20T19:49:55.477Z,71.50
2019-03-20T19:52:27.541Z,71.50
2019-03-20T19:54:59.559Z,71.50
2019-03-20T19:57:30.682Z,71.70
2019-03-20T20:00:04.497Z,71.80
2019-03-20T20:02:34.078Z,71.90
2019-03-20T20:05:15.016Z,71.80
2019-03-20T20:07:37.859Z,72.00
2019-03-20T20:10:10.939Z,72.00
2019-03-20T20:12:45.151Z,72.10
2019-03-20T20:15:25.335Z,72.20
2019-03-20T20:17:56.013Z,72.20
2019-03-20T20:20:25.154Z,72.10
2019-03-20T20:22:54.530Z,72.20
2019-03-20T20:25:24.210Z,72.20
2019-03-20T20:27:53.273Z,72.40
2019-03-20T20:30:23.140Z,72.40
2019-03-20T20:32:52.413Z,72.40
2019-03-20T20:35:26.039Z,72.50
2019-03-20T20:37:54.788Z,72.50
2019-03-20T20:40:24.011Z,72.60
2019-03-20T20:42:53.226Z,72.60
2019-03-20T20:45:27.413Z,72.60
2019-03-20T20:47:58.153Z,72.70
2019-03-20T20:50:29.138Z,72.60
2019-03-20T20:53:03.017Z,72.60
2019-03-20T20:55:32.362Z,72.80
2019-03-20T20:58:02.215Z,72.90
2019-03-20T21:00:32.433Z,72.70
2019-03-20T21:03:02.373Z,72.80
2019-03-20T21:05:38.758Z,72.60
2019-03-20T21:08:13.340Z,72.80
2019-03-20T21:10:43.328Z,72.80
2019-03-20T21:13:24.303Z,72.80
2019-03-20T21:16:11.934Z,72.80
2019-03-20T21:19:19.926Z,73.00
2019-03-20T21:22:43.930Z,73.00
2019-03-20T21:25:26.014Z,73.70
2019-03-20T21:28:57.559Z,73.10
2019-03-20T21:31:49.518Z,73.10
2019-03-20T21:35:23.745Z,73.00
2019-03-20T21:38:12.935Z,73.00
2019-03-20T21:41:33.621Z,73.10
2019-03-20T21:44:42.632Z,73.10
2019-03-20T21:47:38.597Z,73.20
2019-03-20T21:50:40.654Z,73.20
2019-03-20T21:53:12.317Z,73.10
2019-03-20T21:59:52.395Z,73.30
2019-03-20T22:02:42.761Z,73.40
2019-03-20T22:05:40.308Z,73.30
2019-03-20T22:08:17.547Z,73.20
2019-03-20T22:11:22.468Z,73.00
2019-03-20T22:14:02.310Z,73.00
2019-03-20T22:17:32.356Z,73.00
2019-03-20T22:20:56.289Z,72.90
2019-03-20T22:23:57.366Z,72.60
2019-03-20T22:27:02.078Z,72.50
2019-03-20T22:29:33.493Z,72.30
2019-03-20T22:32:53.315Z,72.10
2019-03-20T22:35:46.710Z,72.20
2019-03-20T22:38:37.779Z,72.20
2019-03-20T22:41:43.426Z,72.20
2019-03-20T22:44:14.284Z,72.00
2019-03-20T22:47:35.052Z,71.90
2019-03-20T22:50:33.500Z,71.90
2019-03-20T22:53:38.109Z,71.80
2019-03-20T22:57:45.222Z,71.80
2019-03-20T22:59:47.374Z,71.70
2019-03-20T23:03:08.632Z,71.60
2019-03-20T23:05:46.515Z,71.50
2019-03-20T23:08:16.270Z,71.40
2019-03-20T23:10:47.678Z,71.20
2019-03-20T23:13:19.149Z,71.20
2019-03-20T23:15:52.771Z,71.80
2019-03-20T23:18:25.186Z,71.30
2019-03-20T23:20:56.360Z,71.20
2019-03-20T23:23:26.152Z,71.20
2019-03-20T23:25:56.731Z,71.10
2019-03-20T23:28:26.946Z,71.10
2019-03-20T23:31:41.036Z,71.00
2019-03-20T23:34:15.806Z,70.90
2019-03-20T23:36:54.697Z,70.70
2019-03-20T23:51:01.722Z,70.80
2019-03-20T23:53:45.634Z,70.60
2019-03-20T23:56:19.995Z,70.40
2019-03-20T23:58:54.228Z,70.40
